Time;durP1;ratioP1;P1;durP2;ratioP2;P2;SDS_P1;SDS_P2;PMS_P1;PMS_P2;Temp;Humidity;BMP_temperature;BMP_pressure;BME280_temperature;BME280_humidity;BME280_pressure;Samples;Min_cycle;Max_cycle;Signal;HPM_P1;HPM_P2
2021/01/09 00:01:02;;;;;;;0.65;0.65;;;2.30;99.90;;;;;;5052846;28;20576;-71
2021/01/09 00:03:28;;;;;;;0.30;0.30;;;2.30;99.90;;;;;;5051908;28;20633;-70
2021/01/09 00:05:55;;;;;;;0.30;0.30;;;2.30;99.90;;;;;;5053206;28;20193;-70
2021/01/09 00:08:20;;;;;;;0.30;0.30;;;2.30;99.90;;;;;;5034653;28;20190;-71
2021/01/09 00:10:49;;;;;;;0.60;0.60;;;2.30;99.90;;;;;;5032710;28;20638;-72
2021/01/09 00:13:15;;;;;;;0.30;0.30;;;2.20;99.90;;;;;;5033354;28;20170;-72
2021/01/09 00:15:41;;;;;;;0.30;0.30;;;2.20;99.90;;;;;;5033193;28;20691;-72
2021/01/09 00:18:06;;;;;;;0.30;0.30;;;2.20;99.90;;;;;;5033050;28;20265;-71
2021/01/09 00:20:32;;;;;;;0.30;0.30;;;2.20;99.90;;;;;;5034624;28;20206;-71
2021/01/09 00:22:58;;;;;;;0.40;0.40;;;2.20;99.90;;;;;;5037113;28;20186;-71
2021/01/09 00:25:26;;;;;;;0.33;0.33;;;2.30;99.90;;;;;;5036863;28;20171;-71
2021/01/09 00:27:52;;;;;;;1.73;1.67;;;2.20;99.90;;;;;;5037261;28;20240;-71
2021/01/09 00:30:18;;;;;;;0.83;0.83;;;2.30;99.90;;;;;;5044262;28;20178;-72
2021/01/09 00:32:45;;;;;;;0.30;0.30;;;2.30;99.90;;;;;;5056860;28;20200;-71
2021/01/09 00:35:11;;;;;;;0.30;0.30;;;2.30;99.90;;;;;;5055599;28;20211;-71
2021/01/09 00:37:37;;;;;;;0.30;0.30;;;2.30;99.90;;;;;;5056621;28;20169;-71
2021/01/09 00:40:04;;;;;;;0.30;0.30;;;2.40;99.90;;;;;;5056348;28;20162;-71
2021/01/09 00:42:30;;;;;;;0.57;0.57;;;2.40;99.90;;;;;;5022289;28;20557;-72
2021/01/09 00:44:56;;;;;;;0.83;0.83;;;2.40;99.90;;;;;;5056350;28;20200;-71
2021/01/09 00:47:21;;;;;;;0.40;0.40;;;2.40;99.90;;;;;;5057084;28;20173;-71
2021/01/09 00:49:47;;;;;;;0.30;0.30;;;2.40;99.90;;;;;;5045333;28;20181;-70
2021/01/09 00:52:12;;;;;;;0.30;0.30;;;2.40;99.90;;;;;;5037141;28;20549;-71
2021/01/09 00:54:38;;;;;;;0.40;0.40;;;2.40;99.90;;;;;;5019823;28;20281;-71
2021/01/09 00:57:04;;;;;;;0.40;0.40;;;2.40;99.90;;;;;;5038094;28;20178;-71
2021/01/09 00:59:30;;;;;;;0.30;0.30;;;2.40;99.90;;;;;;5042197;28;20218;-72
2021/01/09 01:01:58;;;;;;;0.30;0.30;;;2.40;99.90;;;;;;5056615;28;20268;-71
2021/01/09 01:04:25;;;;;;;0.30;0.30;;;2.30;99.90;;;;;;5057640;28;20174;-73
2021/01/09 01:06:53;;;;;;;0.30;0.30;;;2.30;99.90;;;;;;5057473;28;20259;-71
2021/01/09 01:09:18;;;;;;;0.30;0.30;;;2.20;99.90;;;;;;5057150;28;20655;-72
2021/01/09 01:11:44;;;;;;;0.30;0.30;;;2.30;99.90;;;;;;5056207;28;20216;-71
2021/01/09 01:14:11;;;;;;;0.30;0.30;;;2.20;99.90;;;;;;5050810;28;20591;-71
2021/01/09 01:16:37;;;;;;;0.30;0.30;;;2.20;99.90;;;;;;5036149;28;20673;-71
2021/01/09 01:19:03;;;;;;;0.30;0.30;;;2.20;99.90;;;;;;5036088;28;20174;-70
2021/01/09 01:21:29;;;;;;;0.30;0.30;;;2.20;99.90;;;;;;5035470;28;20205;-71
2021/01/09 01:23:55;;;;;;;0.50;0.50;;;2.30;99.90;;;;;;5035687;28;20646;-71
2021/01/09 01:26:20;;;;;;;0.60;0.60;;;2.20;99.90;;;;;;5035766;28;20224;-71
2021/01/09 01:28:46;;;;;;;0.50;0.50;;;2.30;99.90;;;;;;5035652;28;20178;-71
2021/01/09 01:31:12;;;;;;;0.30;0.30;;;2.30;99.90;;;;;;5035060;28;20228;-70
2021/01/09 01:33:39;;;;;;;0.30;0.30;;;2.30;99.90;;;;;;5035562;28;20508;-71
2021/01/09 01:36:07;;;;;;;0.30;0.30;;;2.30;99.90;;;;;;5035873;28;20530;-71
2021/01/09 01:38:33;;;;;;;0.30;0.30;;;2.30;99.90;;;;;;5050081;28;20173;-71
2021/01/09 01:41:03;;;;;;;0.40;0.40;;;2.30;99.90;;;;;;5055070;28;20172;-69
2021/01/09 01:43:29;;;;;;;0.40;0.40;;;2.30;99.90;;;;;;5055617;28;20201;-72
2021/01/09 01:45:57;;;;;;;0.30;0.30;;;2.30;99.90;;;;;;5055215;28;20209;-70
2021/01/09 01:48:23;;;;;;;0.40;0.40;;;2.30;99.90;;;;;;5055599;28;20404;-72
2021/01/09 01:50:49;;;;;;;0.30;0.30;;;2.30;99.90;;;;;;5054946;28;20169;-71
2021/01/09 01:53:15;;;;;;;0.30;0.30;;;2.30;99.90;;;;;;5055236;28;20193;-71
2021/01/09 01:55:42;;;;;;;0.30;0.30;;;2.20;99.90;;;;;;5036330;28;20213;-71
2021/01/09 01:58:08;;;;;;;0.40;0.40;;;2.20;99.90;;;;;;5035363;28;20198;-71
2021/01/09 02:00:34;;;;;;;0.70;0.70;;;2.20;99.90;;;;;;5034900;28;20205;-72
2021/01/09 02:03:01;;;;;;;0.30;0.30;;;2.20;99.90;;;;;;5035056;28;20217;-72
2021/01/09 02:05:41;;;;;;;0.30;0.30;;;2.20;99.90;;;;;;5035022;28;20609;-71
2021/01/09 02:08:10;;;;;;;0.30;0.30;;;2.20;99.90;;;;;;5035090;28;20193;-76
2021/01/09 02:10:36;;;;;;;0.30;0.30;;;2.30;99.90;;;;;;5034623;28;20188;-71
2021/01/09 02:13:12;;;;;;;0.93;0.93;;;2.30;99.90;;;;;;5035003;28;20186;-72
2021/01/09 02:15:39;;;;;;;0.30;0.30;;;2.30;99.90;;;;;;5033866;28;20229;-71
2021/01/09 02:18:06;;;;;;;0.30;0.30;;;2.30;99.90;;;;;;5036165;28;20228;-70
2021/01/09 02:20:35;;;;;;;0.30;0.30;;;2.30;99.90;;;;;;5054518;28;20176;-71
2021/01/09 02:23:02;;;;;;;0.30;0.30;;;2.30;99.90;;;;;;5054786;28;20196;-71
2021/01/09 02:25:28;;;;;;;0.65;0.65;;;2.30;99.90;;;;;;5054734;28;20506;-71
2021/01/09 02:27:54;;;;;;;0.80;0.80;;;2.30;99.90;;;;;;5054752;28;20173;-73
2021/01/09 02:30:25;;;;;;;0.30;0.30;;;2.30;99.90;;;;;;5052067;28;20177;-71
2021/01/09 02:33:14;;;;;;;1.27;1.27;;;2.30;99.90;;;;;;5054527;28;20951;-72
2021/01/09 02:35:40;;;;;;;0.82;0.82;;;2.30;99.90;;;;;;5035752;28;20694;-71
2021/01/09 02:38:06;;;;;;;0.30;0.20;;;2.30;99.90;;;;;;5034625;28;20174;-72
2021/01/09 02:40:39;;;;;;;0.30;0.20;;;2.20;99.90;;;;;;5034267;28;20520;-71
2021/01/09 02:43:12;;;;;;;0.30;0.30;;;2.20;99.90;;;;;;5033599;28;20265;-70
2021/01/09 02:45:38;;;;;;;0.30;0.30;;;2.20;99.90;;;;;;5051904;28;20181;-71
2021/01/09 02:48:05;;;;;;;0.30;0.30;;;2.10;99.90;;;;;;5054375;28;20181;-71
2021/01/09 02:50:31;;;;;;;0.30;0.30;;;2.10;99.90;;;;;;5053723;28;20173;-72
2021/01/09 02:52:56;;;;;;;0.30;0.30;;;2.10;99.90;;;;;;5053975;28;20204;-71
2021/01/09 02:55:22;;;;;;;0.30;0.30;;;2.10;99.90;;;;;;5054142;28;20487;-72
2021/01/09 02:57:48;;;;;;;0.30;0.30;;;2.10;99.90;;;;;;5054544;28;20181;-72
2021/01/09 03:00:14;;;;;;;0.30;0.30;;;2.10;99.90;;;;;;5051771;28;20416;-72
2021/01/09 03:02:39;;;;;;;1.85;1.75;;;2.00;99.90;;;;;;5053975;28;20221;-71
2021/01/09 03:05:05;;;;;;;0.30;0.30;;;2.00;99.90;;;;;;5053817;28;20216;-71
2021/01/09 03:07:31;;;;;;;0.30;0.20;;;2.10;99.90;;;;;;5049033;28;20225;-71
2021/01/09 03:09:56;;;;;;;0.30;0.30;;;2.00;99.90;;;;;;5033556;28;20170;-71
2021/01/09 03:12:22;;;;;;;0.30;0.30;;;2.00;99.90;;;;;;5032483;28;20194;-72
2021/01/09 03:14:48;;;;;;;1.53;1.43;;;2.10;99.90;;;;;;5039085;28;20196;-71
2021/01/09 03:17:13;;;;;;;0.50;0.50;;;2.10;99.90;;;;;;5053724;28;20174;-71
2021/01/09 03:19:39;;;;;;;0.87;0.87;;;2.20;99.90;;;;;;5053874;28;20180;-71
2021/01/09 03:22:05;;;;;;;0.30;0.30;;;2.20;99.90;;;;;;5053162;28;20292;-71
2021/01/09 03:24:30;;;;;;;2.77;2.67;;;2.20;99.90;;;;;;5053152;28;20250;-72
2021/01/09 03:26:56;;;;;;;0.40;0.40;;;2.20;99.90;;;;;;5053557;28;20170;-72
2021/01/09 03:29:21;;;;;;;0.70;0.70;;;2.20;99.90;;;;;;5053525;28;20174;-72
2021/01/09 03:31:47;;;;;;;1.57;1.47;;;2.10;99.90;;;;;;5053093;28;20190;-71
2021/01/09 03:34:13;;;;;;;2.10;2.00;;;2.10;99.90;;;;;;5053374;28;20173;-71
2021/01/09 03:36:38;;;;;;;0.30;0.30;;;2.00;99.90;;;;;;5051056;28;20169;-71
2021/01/09 03:39:05;;;;;;;0.67;0.67;;;2.00;99.90;;;;;;5033379;28;20178;-71
2021/01/09 03:41:30;;;;;;;0.40;0.40;;;2.00;99.90;;;;;;5033244;28;20204;-71
2021/01/09 03:43:56;;;;;;;0.30;0.30;;;2.00;99.90;;;;;;5033518;28;20169;-72
2021/01/09 03:46:21;;;;;;;0.30;0.30;;;2.00;99.90;;;;;;5033530;28;20166;-70
2021/01/09 03:48:47;;;;;;;0.30;0.30;;;2.10;99.90;;;;;;5033580;28;20202;-71
2021/01/09 03:51:13;;;;;;;0.30;0.30;;;2.10;99.90;;;;;;5032831;28;20753;-72
2021/01/09 03:53:38;;;;;;;0.40;0.40;;;2.10;99.90;;;;;;5032226;28;20181;-72
2021/01/09 03:56:04;;;;;;;1.70;0.97;;;2.10;99.90;;;;;;5032719;28;20206;-72
2021/01/09 03:58:30;;;;;;;0.83;0.83;;;2.00;99.90;;;;;;5033484;28;20587;-70
2021/01/09 04:00:55;;;;;;;0.30;0.30;;;2.00;99.90;;;;;;5032737;28;20470;-71
2021/01/09 04:03:21;;;;;;;0.43;0.43;;;2.00;99.90;;;;;;5031633;28;20182;-72
2021/01/09 04:05:47;;;;;;;0.30;0.30;;;2.00;99.90;;;;;;5033006;28;20224;-71
2021/01/09 04:08:12;;;;;;;0.70;0.70;;;2.00;99.90;;;;;;5031988;28;20179;-72
2021/01/09 04:10:38;;;;;;;0.30;0.30;;;2.00;99.90;;;;;;5032815;28;20178;-71
2021/01/09 04:13:03;;;;;;;0.30;0.30;;;2.00;99.90;;;;;;5033027;28;20702;-71
2021/01/09 04:15:29;;;;;;;1.03;1.00;;;2.00;99.90;;;;;;5033057;28;20194;-70
2021/01/09 04:17:55;;;;;;;0.30;0.20;;;2.00;99.90;;;;;;5033206;28;20592;-71
2021/01/09 04:20:20;;;;;;;0.30;0.30;;;2.00;99.90;;;;;;5032735;28;20228;-71
2021/01/09 04:22:46;;;;;;;0.50;0.50;;;2.00;99.90;;;;;;5036108;28;20218;-71
2021/01/09 04:25:13;;;;;;;0.30;0.30;;;2.00;99.90;;;;;;5033195;28;20166;-72
2021/01/09 04:27:38;;;;;;;0.85;0.85;;;2.00;99.90;;;;;;5033040;28;20171;-71
2021/01/09 04:30:05;;;;;;;0.30;0.30;;;2.00;99.90;;;;;;5032615;28;20197;-71
2021/01/09 04:32:32;;;;;;;0.30;0.30;;;1.90;99.90;;;;;;5032922;28;20201;-71
2021/01/09 04:34:59;;;;;;;0.30;0.30;;;1.90;99.90;;;;;;5032928;28;20202;-71
2021/01/09 04:37:25;;;;;;;0.30;0.30;;;1.90;99.90;;;;;;5044018;28;20188;-72
2021/01/09 04:39:51;;;;;;;0.30;0.30;;;1.90;99.90;;;;;;5052519;28;20166;-72
2021/01/09 04:42:17;;;;;;;1.53;1.20;;;1.90;99.90;;;;;;5052586;28;20427;-71
2021/01/09 04:44:44;;;;;;;0.30;0.20;;;1.80;99.90;;;;;;5052750;28;20185;-71
2021/01/09 04:47:11;;;;;;;0.30;0.30;;;1.80;99.90;;;;;;5052440;28;20183;-71
2021/01/09 04:49:38;;;;;;;0.30;0.30;;;1.70;99.90;;;;;;5042684;28;20232;-71
2021/01/09 04:52:07;;;;;;;0.75;0.75;;;1.70;99.90;;;;;;5031124;28;20196;-71
2021/01/09 04:54:33;;;;;;;0.30;0.30;;;1.70;99.90;;;;;;5033261;28;20200;-71
2021/01/09 04:56:58;;;;;;;0.30;0.30;;;1.80;99.90;;;;;;5032699;28;20182;-71
2021/01/09 04:59:24;;;;;;;0.30;0.30;;;1.70;99.90;;;;;;5032889;28;20169;-70
2021/01/09 05:01:52;;;;;;;0.30;0.30;;;1.80;99.90;;;;;;5032326;28;20193;-73
2021/01/09 05:04:19;;;;;;;0.30;0.30;;;1.80;99.90;;;;;;5032773;28;20527;-71
2021/01/09 05:06:46;;;;;;;0.30;0.30;;;1.80;99.90;;;;;;5033364;28;20243;-71
2021/01/09 05:09:13;;;;;;;0.45;0.45;;;1.70;99.90;;;;;;5036552;28;20181;-71
2021/01/09 05:11:41;;;;;;;0.30;0.30;;;1.80;99.90;;;;;;5040419;28;20193;-71
2021/01/09 05:14:08;;;;;;;0.30;0.30;;;1.80;99.90;;;;;;5055387;28;20173;-71
2021/01/09 05:16:35;;;;;;;0.30;0.30;;;1.80;99.90;;;;;;5056156;28;20181;-71
2021/01/09 05:19:02;;;;;;;0.30;0.30;;;1.80;99.90;;;;;;5056235;28;20633;-73
2021/01/09 05:21:30;;;;;;;1.35;1.35;;;1.90;99.90;;;;;;5055238;28;20201;-71
2021/01/09 05:24:01;;;;;;;0.30;0.30;;;1.90;99.90;;;;;;5055837;28;20165;-71
2021/01/09 05:26:28;;;;;;;0.30;0.30;;;1.90;99.90;;;;;;5055857;28;20299;-71
2021/01/09 05:29:00;;;;;;;0.40;0.40;;;1.90;99.90;;;;;;5004626;28;20180;-71
2021/01/09 05:31:28;;;;;;;0.30;0.30;;;1.90;99.90;;;;;;5055224;28;20204;-71
2021/01/09 05:33:54;;;;;;;0.30;0.30;;;1.90;99.90;;;;;;5055801;28;20162;-71
2021/01/09 05:36:21;;;;;;;0.30;0.30;;;1.90;99.90;;;;;;5037377;28;20735;-71
2021/01/09 05:38:48;;;;;;;0.82;0.82;;;1.90;99.90;;;;;;5035797;28;20248;-71
2021/01/09 05:41:16;;;;;;;0.30;0.30;;;1.90;99.90;;;;;;5035203;28;20189;-72
2021/01/09 05:43:46;;;;;;;0.93;0.93;;;1.90;99.90;;;;;;5035614;28;20174;-71
2021/01/09 05:46:12;;;;;;;2.47;2.28;;;1.90;99.90;;;;;;5034319;28;20178;-71
2021/01/09 05:48:40;;;;;;;0.30;0.30;;;1.90;99.90;;;;;;5034485;28;20198;-71
2021/01/09 05:51:10;;;;;;;0.30;0.30;;;1.90;99.90;;;;;;5034898;28;20412;-72
2021/01/09 05:53:41;;;;;;;0.35;0.35;;;1.90;99.90;;;;;;5036908;28;20202;-70
2021/01/09 05:56:09;;;;;;;0.65;0.65;;;1.90;99.90;;;;;;5054191;28;20550;-71
2021/01/09 05:58:35;;;;;;;1.15;1.15;;;2.00;99.90;;;;;;5055636;28;20172;-72
2021/01/09 06:01:10;;;;;;;0.30;0.30;;;2.00;99.90;;;;;;5036454;28;20200;-71
2021/01/09 06:03:47;;;;;;;0.30;0.30;;;2.00;99.90;;;;;;5054233;28;20176;-72
2021/01/09 06:06:31;;;;;;;0.30;0.30;;;1.90;99.90;;;;;;5055138;28;20560;-71
2021/01/09 06:09:04;;;;;;;0.40;0.40;;;1.90;99.90;;;;;;5053375;28;20193;-71
2021/01/09 06:11:37;;;;;;;0.77;0.77;;;1.90;99.90;;;;;;5054604;28;20190;-71
2021/01/09 06:14:08;;;;;;;0.30;0.30;;;1.90;99.90;;;;;;5054910;28;20165;-71
2021/01/09 06:16:36;;;;;;;0.50;0.50;;;2.00;99.90;;;;;;5054857;28;20194;-70
2021/01/09 06:19:02;;;;;;;0.30;0.30;;;2.00;99.90;;;;;;5053898;28;20181;-71
2021/01/09 06:21:30;;;;;;;0.40;0.40;;;1.90;99.90;;;;;;5053634;28;20276;-72
2021/01/09 06:23:57;;;;;;;0.40;0.40;;;1.90;99.90;;;;;;5054933;28;20541;-71
2021/01/09 06:26:25;;;;;;;0.30;0.30;;;1.90;99.90;;;;;;5054751;28;20173;-71
2021/01/09 06:29:00;;;;;;;0.30;0.30;;;1.90;99.90;;;;;;5054742;28;20195;-71
2021/01/09 06:31:27;;;;;;;0.30;0.30;;;1.90;99.90;;;;;;5054274;28;20201;-71
2021/01/09 06:33:55;;;;;;;0.35;0.35;;;1.90;99.90;;;;;;5047319;28;20264;-71
2021/01/09 06:36:24;;;;;;;0.30;0.30;;;2.00;99.90;;;;;;5034582;28;20216;-71
2021/01/09 06:38:53;;;;;;;0.30;0.30;;;1.90;99.90;;;;;;5034731;28;20213;-71
2021/01/09 06:41:21;;;;;;;0.30;0.20;;;1.90;99.90;;;;;;5034123;28;20712;-71
2021/01/09 06:43:49;;;;;;;0.30;0.30;;;1.90;99.90;;;;;;5052072;28;20170;-72
2021/01/09 06:46:35;;;;;;;0.30;0.30;;;1.80;99.90;;;;;;5054244;28;20187;-70
2021/01/09 06:49:03;;;;;;;0.30;0.30;;;1.80;99.90;;;;;;5049185;28;20240;-71
2021/01/09 06:51:34;;;;;;;0.30;0.30;;;1.80;99.90;;;;;;5033831;28;20194;-71
2021/01/09 06:54:15;;;;;;;0.30;0.30;;;1.70;99.90;;;;;;5038821;28;20511;-71
2021/01/09 06:56:43;;;;;;;0.30;0.30;;;1.70;99.90;;;;;;5054264;28;20192;-71
2021/01/09 06:59:08;;;;;;;0.30;0.20;;;1.70;99.90;;;;;;5054138;28;20248;-72
2021/01/09 07:01:38;;;;;;;0.30;0.30;;;1.60;99.90;;;;;;5052558;28;20609;-71
2021/01/09 07:04:05;;;;;;;0.30;0.30;;;1.60;99.90;;;;;;5053902;28;20219;-71
2021/01/09 07:06:59;;;;;;;0.30;0.30;;;1.60;99.90;;;;;;5053833;28;20193;-71
2021/01/09 07:09:25;;;;;;;1.67;1.63;;;1.50;99.90;;;;;;5053453;28;20189;-72
2021/01/09 07:11:55;;;;;;;0.30;0.30;;;1.60;99.90;;;;;;5053525;28;20201;-70
2021/01/09 07:14:32;;;;;;;0.30;0.30;;;1.60;99.90;;;;;;5054181;28;20711;-71
2021/01/09 07:16:59;;;;;;;1.05;1.05;;;1.60;99.90;;;;;;5054577;28;20169;-70
2021/01/09 07:19:29;;;;;;;1.35;1.27;;;1.70;99.90;;;;;;5054344;28;20174;-71
2021/01/09 07:21:56;;;;;;;0.30;0.30;;;1.70;99.90;;;;;;5053912;28;20219;-71
2021/01/09 07:24:22;;;;;;;0.30;0.30;;;1.80;99.90;;;;;;5042460;28;20182;-72
2021/01/09 07:26:49;;;;;;;0.30;0.30;;;1.80;99.90;;;;;;5036132;28;20519;-72
2021/01/09 07:29:26;;;;;;;0.32;0.32;;;1.80;99.90;;;;;;5035458;28;20166;-72
2021/01/09 07:31:53;;;;;;;0.93;0.93;;;1.90;99.90;;;;;;5036617;28;20598;-72
2021/01/09 07:34:22;;;;;;;0.30;0.30;;;1.90;99.90;;;;;;5036735;28;20170;-71
2021/01/09 07:36:52;;;;;;;0.85;0.85;;;1.90;99.90;;;;;;5036754;28;20175;-71
2021/01/09 07:39:23;;;;;;;0.30;0.30;;;1.90;99.90;;;;;;5037077;28;20531;-71
2021/01/09 07:41:49;;;;;;;0.30;0.30;;;1.90;99.90;;;;;;5033526;28;20190;-69
2021/01/09 07:44:16;;;;;;;0.30;0.30;;;2.00;99.90;;;;;;5032612;28;20166;-71
2021/01/09 07:46:52;;;;;;;0.40;0.40;;;2.00;99.90;;;;;;5039596;28;20529;-72
2021/01/09 07:49:24;;;;;;;0.70;0.70;;;2.00;99.90;;;;;;5054553;28;20180;-72
2021/01/09 07:52:09;;;;;;;0.30;0.30;;;2.00;99.90;;;;;;5056290;28;20316;-71
2021/01/09 07:54:40;;;;;;;0.50;0.50;;;2.00;99.90;;;;;;5053020;28;20201;-71
2021/01/09 07:57:18;;;;;;;1.15;1.10;;;2.00;99.90;;;;;;5052068;28;20250;-72
2021/01/09 07:59:59;;;;;;;2.83;1.75;;;2.00;99.90;;;;;;5053208;28;20206;-73
2021/01/09 08:02:26;;;;;;;0.30;0.30;;;1.90;99.90;;;;;;5053022;28;20622;-71
2021/01/09 08:05:05;;;;;;;0.60;0.60;;;2.00;99.90;;;;;;5053154;28;20185;-71
2021/01/09 08:07:33;;;;;;;0.30;0.30;;;2.00;99.90;;;;;;5053239;28;20199;-72
2021/01/09 08:10:10;;;;;;;0.73;0.73;;;2.10;99.90;;;;;;5034464;28;20220;-73
2021/01/09 08:12:37;;;;;;;0.50;0.50;;;2.10;99.90;;;;;;5052839;28;20246;-72
2021/01/09 08:15:04;;;;;;;0.30;0.30;;;2.20;99.90;;;;;;5053138;28;20542;-70
2021/01/09 08:17:29;;;;;;;0.30;0.30;;;2.20;99.90;;;;;;5002943;28;20182;-72
2021/01/09 08:20:08;;;;;;;0.30;0.30;;;2.20;99.90;;;;;;5032821;28;20174;-73
2021/01/09 08:22:35;;;;;;;0.30;0.30;;;2.20;99.90;;;;;;5032918;28;20197;-72
2021/01/09 08:25:12;;;;;;;0.50;0.50;;;2.20;99.90;;;;;;5032562;28;20182;-72
2021/01/09 08:27:48;;;;;;;0.40;0.40;;;2.20;99.90;;;;;;5033179;28;20307;-73
2021/01/09 08:30:16;;;;;;;0.40;0.40;;;2.30;99.90;;;;;;5033948;28;20186;-71
2021/01/09 08:32:42;;;;;;;0.30;0.20;;;2.30;99.90;;;;;;5051464;28;20201;-72
2021/01/09 08:35:09;;;;;;;0.38;0.38;;;2.30;99.90;;;;;;5052688;28;20331;-73
2021/01/09 08:37:35;;;;;;;0.30;0.30;;;2.20;99.90;;;;;;5052881;28;20180;-70
2021/01/09 08:40:19;;;;;;;5.18;1.75;;;2.20;99.90;;;;;;5052336;28;20169;-72
2021/01/09 08:42:59;;;;;;;0.30;0.30;;;2.20;99.90;;;;;;5056468;28;20200;-71
2021/01/09 08:45:37;;;;;;;0.73;0.73;;;2.30;99.90;;;;;;5054120;28;20242;-72
2021/01/09 08:48:03;;;;;;;0.40;0.40;;;2.40;99.90;;;;;;5036559;28;20245;-73
2021/01/09 08:50:32;;;;;;;0.60;0.60;;;2.40;99.90;;;;;;5049370;28;20526;-72
2021/01/09 08:53:04;;;;;;;0.30;0.30;;;2.50;99.90;;;;;;5056394;28;20669;-71
2021/01/09 08:55:31;;;;;;;1.77;1.67;;;2.50;99.90;;;;;;5056610;28;20585;-73
2021/01/09 08:58:00;;;;;;;0.30;0.30;;;2.60;99.90;;;;;;5038447;28;20181;-73
2021/01/09 09:00:29;;;;;;;0.40;0.40;;;2.60;99.90;;;;;;5055769;28;20613;-72
2021/01/09 09:02:55;;;;;;;0.50;0.50;;;2.60;99.90;;;;;;5056117;28;20193;-72
2021/01/09 09:05:26;;;;;;;0.30;0.30;;;2.60;99.90;;;;;;5055977;28;20189;-72
2021/01/09 09:07:55;;;;;;;0.88;0.88;;;2.60;99.90;;;;;;5021289;28;20539;-71
2021/01/09 09:10:23;;;;;;;0.30;0.30;;;2.50;99.90;;;;;;5055814;28;20256;-71
2021/01/09 09:12:49;;;;;;;0.35;0.35;;;2.50;99.90;;;;;;5054750;28;20208;-71
2021/01/09 09:15:37;;;;;;;0.30;0.30;;;2.40;99.90;;;;;;5049467;28;20674;-73
2021/01/09 09:18:03;;;;;;;1.77;1.67;;;2.30;99.90;;;;;;5036182;28;20245;-72
2021/01/09 09:20:32;;;;;;;0.30;0.30;;;2.20;99.90;;;;;;5034245;28;20232;-72
2021/01/09 09:23:14;;;;;;;0.35;0.35;;;2.20;99.90;;;;;;5034821;28;20220;-73
2021/01/09 09:25:41;;;;;;;0.98;0.98;;;2.20;99.90;;;;;;5035887;28;20189;-72
2021/01/09 09:28:09;;;;;;;1.05;1.05;;;2.10;99.90;;;;;;5034602;28;20189;-72
2021/01/09 09:30:35;;;;;;;0.30;0.30;;;2.10;99.90;;;;;;5036483;28;20189;-73
2021/01/09 09:33:12;;;;;;;0.40;0.40;;;2.10;99.90;;;;;;5036352;28;20201;-73
2021/01/09 09:35:38;;;;;;;0.40;0.40;;;2.30;99.90;;;;;;5034099;28;20223;-72
2021/01/09 09:38:03;;;;;;;0.43;0.43;;;2.40;99.90;;;;;;5035543;28;20174;-72
2021/01/09 09:40:39;;;;;;;2.17;2.00;;;2.60;99.90;;;;;;5035457;28;20409;-74
2021/01/09 09:43:16;;;;;;;0.52;0.52;;;2.80;99.90;;;;;;5035516;28;20205;-71
2021/01/09 09:46:03;;;;;;;0.30;0.30;;;2.90;99.90;;;;;;5035301;28;20224;-73
2021/01/09 09:48:37;;;;;;;0.30;0.20;;;3.00;99.90;;;;;;5035460;28;20593;-71
2021/01/09 09:51:09;;;;;;;0.77;0.77;;;3.00;99.90;;;;;;5034784;28;20283;-72
2021/01/09 09:53:36;;;;;;;1.85;1.75;;;3.20;99.90;;;;;;5034962;28;20197;-72
2021/01/09 09:56:12;;;;;;;0.30;0.30;;;3.40;99.90;;;;;;5035094;28;20719;-71
2021/01/09 09:58:38;;;;;;;0.30;0.30;;;3.50;99.90;;;;;;5055386;28;20173;-72
2021/01/09 10:01:17;;;;;;;0.30;0.30;;;3.40;99.90;;;;;;5054930;28;20529;-72
2021/01/09 10:03:43;;;;;;;1.50;1.40;;;3.40;99.90;;;;;;5054784;28;20179;-72
2021/01/09 10:06:09;;;;;;;0.30;0.30;;;3.40;99.90;;;;;;5055143;28;20189;-72
2021/01/09 10:08:34;;;;;;;0.77;0.77;;;3.30;99.90;;;;;;5055030;28;20188;-72
2021/01/09 10:11:01;;;;;;;0.30;0.30;;;3.30;99.90;;;;;;5054551;28;20173;-72
2021/01/09 10:13:29;;;;;;;0.30;0.20;;;3.30;99.90;;;;;;5055135;28;20185;-72
2021/01/09 10:15:58;;;;;;;0.30;0.30;;;3.30;99.90;;;;;;5054927;28;20216;-71
2021/01/09 10:18:25;;;;;;;0.30;0.30;;;3.40;99.90;;;;;;5054693;28;20173;-72
2021/01/09 10:20:51;;;;;;;0.43;0.43;;;3.70;99.90;;;;;;5053178;28;20177;-73
2021/01/09 10:23:16;;;;;;;0.30;0.30;;;4.10;99.90;;;;;;5054309;28;20261;-73
2021/01/09 10:25:43;;;;;;;1.33;1.23;;;4.40;99.90;;;;;;5054548;28;20419;-73
2021/01/09 10:28:09;;;;;;;1.20;1.10;;;4.60;99.90;;;;;;5054966;28;20192;-71
2021/01/09 10:30:36;;;;;;;0.50;0.50;;;4.60;99.90;;;;;;5054507;28;20174;-72
2021/01/09 10:33:03;;;;;;;0.40;0.40;;;4.40;99.90;;;;;;5042538;28;20605;-72
2021/01/09 10:35:29;;;;;;;0.75;0.75;;;4.30;99.90;;;;;;5036430;28;20205;-72
2021/01/09 10:37:56;;;;;;;0.30;0.30;;;4.20;99.90;;;;;;5037153;28;20523;-71
2021/01/09 10:40:22;;;;;;;0.30;0.30;;;4.50;99.90;;;;;;5032897;28;20404;-72
2021/01/09 10:42:47;;;;;;;1.03;1.03;;;4.70;99.90;;;;;;5033397;28;20551;-71
2021/01/09 10:45:15;;;;;;;0.40;0.40;;;4.60;99.90;;;;;;5034547;28;20173;-72
2021/01/09 10:47:41;;;;;;;0.30;0.30;;;4.50;99.90;;;;;;5045760;28;20193;-71
2021/01/09 10:50:09;;;;;;;0.87;0.87;;;4.20;99.90;;;;;;5042820;28;20534;-71
2021/01/09 10:52:35;;;;;;;0.63;0.63;;;4.10;99.90;;;;;;5033969;28;20759;-72
2021/01/09 10:55:02;;;;;;;0.30;0.30;;;3.80;99.90;;;;;;5034190;28;20197;-72
2021/01/09 10:57:28;;;;;;;0.38;0.38;;;3.90;99.90;;;;;;5033051;28;20178;-72
2021/01/09 10:59:53;;;;;;;0.30;0.30;;;4.00;99.90;;;;;;5032480;28;20255;-76
2021/01/09 11:02:19;;;;;;;0.40;0.40;;;4.30;99.90;;;;;;5033917;28;20421;-72
2021/01/09 11:04:46;;;;;;;0.40;0.40;;;4.70;99.90;;;;;;5033043;28;20255;-71
2021/01/09 11:07:12;;;;;;;4.78;2.42;;;4.80;99.90;;;;;;5042429;28;20181;-72
2021/01/09 11:09:37;;;;;;;0.40;0.40;;;4.80;99.90;;;;;;5052529;28;20235;-72
2021/01/09 11:12:04;;;;;;;0.30;0.30;;;4.80;99.90;;;;;;5053595;28;20185;-72
2021/01/09 11:14:29;;;;;;;0.30;0.30;;;4.70;99.90;;;;;;5054004;28;20255;-72
2021/01/09 11:16:59;;;;;;;0.30;0.30;;;4.70;99.90;;;;;;5053856;28;20705;-74
2021/01/09 11:19:25;;;;;;;0.30;0.30;;;4.50;99.90;;;;;;5042953;28;20471;-72
2021/01/09 11:22:00;;;;;;;0.30;0.30;;;4.40;99.90;;;;;;5033134;28;20670;-71
2021/01/09 11:24:27;;;;;;;0.30;0.30;;;4.20;99.90;;;;;;5033868;28;20596;-72
2021/01/09 11:26:54;;;;;;;0.30;0.30;;;4.00;99.90;;;;;;5040961;28;20184;-72
2021/01/09 11:29:20;;;;;;;0.30;0.30;;;4.00;99.90;;;;;;5053693;28;20172;-72
2021/01/09 11:31:47;;;;;;;0.30;0.20;;;4.10;99.90;;;;;;5051913;28;20276;-73
2021/01/09 11:34:13;;;;;;;0.30;0.30;;;3.90;99.90;;;;;;5053269;28;20447;-71
2021/01/09 11:36:38;;;;;;;0.30;0.30;;;3.90;99.90;;;;;;5052144;28;20585;-71
2021/01/09 11:39:04;;;;;;;0.30;0.30;;;3.80;99.90;;;;;;5053749;28;20631;-72
2021/01/09 11:41:30;;;;;;;0.50;0.50;;;3.70;99.90;;;;;;5052534;28;20204;-72
2021/01/09 11:43:55;;;;;;;0.30;0.30;;;3.50;99.90;;;;;;5051623;28;20516;-72
2021/01/09 11:46:27;;;;;;;0.30;0.30;;;3.40;99.90;;;;;;5053548;28;20215;-72
2021/01/09 11:48:53;;;;;;;0.30;0.30;;;3.30;99.90;;;;;;5053605;28;20221;-72
2021/01/09 11:51:26;;;;;;;0.30;0.30;;;3.30;99.90;;;;;;5052904;28;20181;-72
2021/01/09 11:53:52;;;;;;;0.40;0.40;;;3.30;99.90;;;;;;5053358;28;20404;-72
2021/01/09 11:56:22;;;;;;;0.30;0.30;;;3.20;99.90;;;;;;5051604;28;20228;-71
2021/01/09 11:58:48;;;;;;;0.30;0.30;;;3.20;99.90;;;;;;5051821;28;20165;-71
2021/01/09 12:01:14;;;;;;;0.30;0.30;;;3.30;99.90;;;;;;5051523;28;20194;-71
2021/01/09 12:03:39;;;;;;;0.70;0.70;;;3.30;99.90;;;;;;5053327;28;20161;-72
2021/01/09 12:06:05;;;;;;;1.33;1.30;;;3.40;99.90;;;;;;5052996;28;20176;-71
2021/01/09 12:08:31;;;;;;;0.30;0.30;;;3.40;99.90;;;;;;5053037;28;20165;-70
2021/01/09 12:10:57;;;;;;;0.30;0.30;;;3.50;99.90;;;;;;5045466;28;20713;-72
2021/01/09 12:13:22;;;;;;;0.67;0.67;;;3.60;99.90;;;;;;5033233;28;20173;-72
2021/01/09 12:15:48;;;;;;;0.30;0.30;;;3.70;99.90;;;;;;5033802;28;20239;-72
2021/01/09 12:18:17;;;;;;;0.30;0.30;;;3.80;99.90;;;;;;5035848;28;20668;-72
2021/01/09 12:20:42;;;;;;;0.30;0.30;;;3.70;99.90;;;;;;5036839;28;20401;-72
2021/01/09 12:23:08;;;;;;;0.37;0.37;;;3.70;99.90;;;;;;5036918;28;20201;-73
2021/01/09 12:25:34;;;;;;;0.30;0.30;;;3.70;99.90;;;;;;5036979;28;20178;-72
2021/01/09 12:27:59;;;;;;;0.80;0.80;;;3.70;99.90;;;;;;5036016;28;20538;-71
2021/01/09 12:30:25;;;;;;;0.30;0.30;;;3.60;99.90;;;;;;5035475;28;20174;-71
2021/01/09 12:32:52;;;;;;;0.73;0.73;;;3.50;99.90;;;;;;5036865;28;20432;-72
2021/01/09 12:35:17;;;;;;;0.30;0.30;;;3.50;99.90;;;;;;5037474;28;20197;-71
2021/01/09 12:37:43;;;;;;;0.40;0.40;;;3.50;99.90;;;;;;5039837;28;20241;-71
2021/01/09 12:40:09;;;;;;;0.30;0.30;;;3.60;99.90;;;;;;5041130;28;20361;-71
2021/01/09 12:42:35;;;;;;;1.42;1.42;;;3.60;99.90;;;;;;5056708;28;20185;-71
2021/01/09 12:45:02;;;;;;;0.30;0.30;;;3.60;99.90;;;;;;5056765;28;20170;-71
2021/01/09 12:47:28;;;;;;;0.30;0.30;;;3.70;99.90;;;;;;5056547;28;20400;-72
2021/01/09 12:49:53;;;;;;;0.30;0.30;;;3.60;99.90;;;;;;5055780;28;20231;-75
2021/01/09 12:52:19;;;;;;;0.40;0.40;;;3.50;99.90;;;;;;5057904;28;20731;-71
2021/01/09 12:54:44;;;;;;;0.37;0.37;;;3.40;99.90;;;;;;5057049;28;20296;-72
2021/01/09 12:57:10;;;;;;;0.60;0.60;;;3.40;99.90;;;;;;5038561;28;20185;-72
2021/01/09 12:59:36;;;;;;;1.00;1.00;;;3.30;99.90;;;;;;5036425;28;20166;-72
2021/01/09 13:02:01;;;;;;;0.30;0.30;;;3.30;99.90;;;;;;5035957;28;20190;-71